createdAt,value
2018-05-14T00:00:05.854Z,99.99
2018-05-14T00:05:01.462Z,99.99
2018-05-14T00:09:57.386Z,99.99
2018-05-14T00:14:53.733Z,99.99
2018-05-14T00:19:49.650Z,99.99
2018-05-14T00:24:45.218Z,99.99
2018-05-14T00:29:41.336Z,99.99
2018-05-14T00:34:37.240Z,99.99
2018-05-14T00:39:34.140Z,99.99
2018-05-14T00:44:29.719Z,99.99
2018-05-14T00:49:25.618Z,99.99
2018-05-14T00:54:21.607Z,99.99
2018-05-14T00:59:17.550Z,99.99
2018-05-14T01:04:14.821Z,99.99
2018-05-14T01:09:10.798Z,99.99
2018-05-14T01:14:07.762Z,99.99
2018-05-14T01:19:03.264Z,99.99
2018-05-14T01:23:59.099Z,99.99
2018-05-14T01:28:55.903Z,99.99
2018-05-14T01:33:51.565Z,99.99
2018-05-14T01:38:48.451Z,99.99
2018-05-14T01:43:43.950Z,99.99
2018-05-14T01:48:39.750Z,99.99
2018-05-14T01:53:35.851Z,99.99
2018-05-14T01:58:31.438Z,99.99
2018-05-14T02:03:27.000Z,99.99
2018-05-14T02:08:23.758Z,99.99
2018-05-14T02:13:19.476Z,99.99
2018-05-14T02:18:15.496Z,99.99
2018-05-14T02:23:10.803Z,99.99
2018-05-14T02:28:06.940Z,99.99
2018-05-14T02:33:02.770Z,99.99
2018-05-14T02:37:58.433Z,99.99
2018-05-14T02:42:54.793Z,99.99
2018-05-14T02:47:50.551Z,99.99
2018-05-14T02:52:46.589Z,99.99
2018-05-14T02:57:42.265Z,99.99
2018-05-14T03:02:38.501Z,99.99
2018-05-14T03:07:34.152Z,99.99
2018-05-14T03:12:31.376Z,99.99
2018-05-14T03:17:27.822Z,99.99
2018-05-14T03:22:23.352Z,99.99
2018-05-14T03:27:19.487Z,99.99
2018-05-14T03:32:15.155Z,99.99
2018-05-14T03:37:11.990Z,99.99
2018-05-14T03:42:08.021Z,99.99
2018-05-14T03:47:03.802Z,99.99
2018-05-14T03:51:59.409Z,99.99
2018-05-14T03:56:55.267Z,99.99
2018-05-14T04:01:51.820Z,99.99
2018-05-14T04:06:47.676Z,99.99
2018-05-14T04:11:44.525Z,99.99
2018-05-14T04:16:42.632Z,99.99
2018-05-14T04:21:38.628Z,99.99
2018-05-14T04:26:34.766Z,99.99
2018-05-14T04:31:30.436Z,99.99
2018-05-14T04:36:26.435Z,99.99
2018-05-14T04:41:22.271Z,99.99
2018-05-14T04:46:17.962Z,99.99
2018-05-14T04:51:13.895Z,99.99
2018-05-14T04:56:09.577Z,99.99
2018-05-14T05:01:05.410Z,99.99
2018-05-14T05:06:01.019Z,99.99
2018-05-14T05:11:01.053Z,99.99
2018-05-14T05:15:55.956Z,99.99
2018-05-14T05:20:52.755Z,99.99
2018-05-14T05:25:52.123Z,99.99
2018-05-14T05:30:48.065Z,99.99
2018-05-14T05:35:43.951Z,99.99
2018-05-14T05:40:40.873Z,99.99
2018-05-14T05:45:36.849Z,99.99
2018-05-14T05:50:34.011Z,99.99
2018-05-14T05:55:29.613Z,99.99
2018-05-14T06:00:25.674Z,99.99
2018-05-14T06:05:22.591Z,99.99
2018-05-14T06:10:19.498Z,99.99
2018-05-14T06:15:15.826Z,99.99
2018-05-14T06:20:12.151Z,99.99
2018-05-14T06:25:09.209Z,99.99
2018-05-14T06:30:05.223Z,99.99
2018-05-14T06:35:01.958Z,99.99
2018-05-14T06:39:57.684Z,99.99
2018-05-14T06:44:53.373Z,99.99
2018-05-14T06:49:50.078Z,99.99
2018-05-14T06:54:46.482Z,99.99
2018-05-14T06:59:42.125Z,99.99
2018-05-14T07:04:38.108Z,99.99
2018-05-14T07:09:33.889Z,99.99
2018-05-14T07:14:30.107Z,99.99
2018-05-14T07:19:26.141Z,99.99
2018-05-14T07:24:22.112Z,99.99
2018-05-14T07:29:18.363Z,99.99
2018-05-14T07:34:14.183Z,99.99
2018-05-14T07:39:11.479Z,99.99
2018-05-14T07:44:06.889Z,99.99
2018-05-14T07:49:03.383Z,99.99
2018-05-14T07:54:02.182Z,99.99
2018-05-14T07:59:00.794Z,99.99
2018-05-14T08:03:58.739Z,99.99
2018-05-14T08:08:55.746Z,99.99
2018-05-14T08:13:53.432Z,99.99
2018-05-14T08:18:49.595Z,99.99
2018-05-14T08:23:46.173Z,99.11
2018-05-14T08:28:43.102Z,88.97
2018-05-14T08:33:39.808Z,89.55
2018-05-14T08:38:37.445Z,90.47
2018-05-14T08:43:34.545Z,87.04
2018-05-14T08:48:30.128Z,90.19
2018-05-14T08:53:24.482Z,86.07
2018-05-14T08:58:19.649Z,89.61
2018-05-14T09:03:16.687Z,88.78
2018-05-14T09:08:12.660Z,85.66
2018-05-14T09:13:08.359Z,84.63
2018-05-14T09:18:07.979Z,79.41
2018-05-14T09:23:03.874Z,81.57
2018-05-14T09:28:00.505Z,83.36
2018-05-14T09:32:57.105Z,81.37
2018-05-14T09:37:53.217Z,79.82
2018-05-14T09:42:49.440Z,79.49
2018-05-14T09:47:45.557Z,78.61
2018-05-14T09:52:41.901Z,76.53
2018-05-14T09:57:38.927Z,76.97
2018-05-14T10:02:34.372Z,77.17
2018-05-14T10:07:31.329Z,74.11
2018-05-14T10:12:27.601Z,72.66
2018-05-14T10:17:23.512Z,69.89
2018-05-14T10:22:19.656Z,70.40
2018-05-14T10:27:16.333Z,70.31
2018-05-14T10:32:13.503Z,70.34
2018-05-14T10:37:09.852Z,68.30
2018-05-14T10:42:06.131Z,68.12
2018-05-14T10:47:02.541Z,67.79
2018-05-14T10:51:59.625Z,64.78
2018-05-14T10:56:56.086Z,63.62
2018-05-14T11:01:52.022Z,63.46
2018-05-14T11:06:48.705Z,61.65
2018-05-14T11:11:46.223Z,62.04
2018-05-14T11:16:43.064Z,59.97
2018-05-14T11:21:44.017Z,59.70
2018-05-14T11:26:39.503Z,56.65
2018-05-14T11:31:37.322Z,54.22
2018-05-14T11:36:33.599Z,53.50
2018-05-14T11:41:30.185Z,54.88
2018-05-14T11:46:27.035Z,52.81
2018-05-14T11:51:22.728Z,52.03
2018-05-14T11:56:18.698Z,50.89
2018-05-14T12:01:15.742Z,50.63
2018-05-14T12:06:12.689Z,48.90
2018-05-14T12:11:09.048Z,49.56
2018-05-14T12:16:06.141Z,49.05
2018-05-14T12:21:02.027Z,48.46
2018-05-14T12:25:57.964Z,47.08
2018-05-14T12:30:54.031Z,46.15
2018-05-14T12:35:50.472Z,46.34
2018-05-14T12:40:46.377Z,45.97
2018-05-14T12:45:41.444Z,47.13
2018-05-14T12:50:36.471Z,47.42
2018-05-14T12:55:30.735Z,46.96
2018-05-14T13:00:28.399Z,42.84
2018-05-14T13:05:25.977Z,43.18
2018-05-14T13:10:21.708Z,44.55
2018-05-14T13:15:17.226Z,44.84
2018-05-14T13:20:12.818Z,45.23
2018-05-14T13:25:09.459Z,44.35
2018-05-14T13:30:04.644Z,44.14
2018-05-14T13:35:01.323Z,43.87
2018-05-14T13:39:57.471Z,41.55
2018-05-14T13:44:54.290Z,40.50
2018-05-14T13:49:48.967Z,40.60
2018-05-14T13:54:45.131Z,41.96
2018-05-14T13:59:41.011Z,41.84
2018-05-14T14:04:36.590Z,41.72
2018-05-14T14:09:33.664Z,40.77
2018-05-14T14:14:29.985Z,40.67
2018-05-14T14:19:25.152Z,41.14
2018-05-14T14:24:20.801Z,41.82
2018-05-14T14:29:16.404Z,41.63
2018-05-14T14:34:12.167Z,41.43
2018-05-14T14:39:08.333Z,41.24
2018-05-14T14:44:04.151Z,42.40
2018-05-14T14:49:00.063Z,42.40
2018-05-14T14:53:55.826Z,42.30
2018-05-14T14:58:52.222Z,42.40
2018-05-14T15:03:49.240Z,43.47
2018-05-14T15:08:44.974Z,43.47
2018-05-14T15:13:41.597Z,43.27
2018-05-14T15:18:37.819Z,45.41
2018-05-14T15:23:34.102Z,42.21
2018-05-14T15:28:30.132Z,43.47
2018-05-14T15:33:26.145Z,42.13
2018-05-14T15:38:22.052Z,42.60
2018-05-14T15:43:17.996Z,45.31
2018-05-14T15:48:15.094Z,44.83
2018-05-14T15:53:10.942Z,43.27
2018-05-14T15:58:08.005Z,42.60
2018-05-14T16:03:03.773Z,43.08
2018-05-14T16:08:00.904Z,45.02
2018-05-14T16:12:56.532Z,44.54
2018-05-14T16:17:53.268Z,44.15
2018-05-14T16:22:49.096Z,44.05
2018-05-14T16:27:45.150Z,44.64
2018-05-14T16:32:41.227Z,46.19
2018-05-14T16:37:38.159Z,46.07
2018-05-14T16:42:33.667Z,46.16
2018-05-14T16:47:30.471Z,46.65
2018-05-14T16:52:25.932Z,46.92
2018-05-14T16:57:23.170Z,48.08
2018-05-14T17:02:18.600Z,49.12
2018-05-14T17:07:14.334Z,49.77
2018-05-14T17:12:10.533Z,50.45
2018-05-14T17:17:07.429Z,51.72
2018-05-14T17:22:03.294Z,52.49
2018-05-14T17:27:00.254Z,53.04
2018-05-14T17:31:56.834Z,54.49
2018-05-14T17:36:53.376Z,55.27
2018-05-14T17:41:48.662Z,56.04
2018-05-14T17:46:45.844Z,56.24
2018-05-14T17:51:41.798Z,56.34
2018-05-14T17:56:37.731Z,56.52
2018-05-14T18:01:33.525Z,56.62
2018-05-14T18:06:29.377Z,56.79
2018-05-14T18:11:25.263Z,56.79
2018-05-14T18:16:21.034Z,57.76
2018-05-14T18:21:16.997Z,57.28
2018-05-14T18:26:13.045Z,58.70
2018-05-14T18:31:09.800Z,56.67
2018-05-14T18:36:06.636Z,58.12
2018-05-14T18:41:02.095Z,58.18
2018-05-14T18:45:58.860Z,60.99
2018-05-14T18:50:54.428Z,59.41
2018-05-14T18:55:50.368Z,59.02
2018-05-14T19:00:49.502Z,60.96
2018-05-14T19:05:44.616Z,59.99
2018-05-14T19:10:41.215Z,59.86
2018-05-14T19:15:36.655Z,60.83
2018-05-14T19:20:32.527Z,63.15
2018-05-14T19:25:28.223Z,63.63
2018-05-14T19:30:25.561Z,61.09
2018-05-14T19:35:21.149Z,60.51
2018-05-14T19:40:16.700Z,60.41
2018-05-14T19:45:12.557Z,60.31
2018-05-14T19:50:08.623Z,59.93
2018-05-14T19:55:05.358Z,60.68
2018-05-14T20:00:00.990Z,59.35
2018-05-14T20:04:56.591Z,59.25
2018-05-14T20:09:53.773Z,60.00
2018-05-14T20:14:49.488Z,60.10
2018-05-14T20:19:45.756Z,60.68
2018-05-14T20:24:41.571Z,62.60
2018-05-14T20:29:37.300Z,61.51
2018-05-14T20:34:34.711Z,61.80
2018-05-14T20:39:30.760Z,61.96
2018-05-14T20:44:27.545Z,61.48
2018-05-14T20:49:23.893Z,61.19
2018-05-14T20:54:20.352Z,60.52
2018-05-14T20:59:15.781Z,62.73
2018-05-14T21:04:12.548Z,61.35
2018-05-14T21:09:09.060Z,60.58
2018-05-14T21:14:04.716Z,60.68
2018-05-14T21:19:00.775Z,59.91
2018-05-14T21:23:56.713Z,58.27
2018-05-14T21:28:53.569Z,59.11
2018-05-14T21:33:50.152Z,59.78
2018-05-14T21:38:45.681Z,61.13
2018-05-14T21:43:41.741Z,62.06
2018-05-14T21:48:38.634Z,63.41
2018-05-14T21:53:34.277Z,64.18
2018-05-14T21:58:30.992Z,65.50
2018-05-14T22:03:27.365Z,65.20
2018-05-14T22:08:22.952Z,65.30
2018-05-14T22:13:19.161Z,64.25
2018-05-14T22:18:15.037Z,64.25
2018-05-14T22:23:10.896Z,64.02
2018-05-14T22:28:06.544Z,63.06
2018-05-14T22:33:02.213Z,62.96
2018-05-14T22:37:57.986Z,63.15
2018-05-14T22:42:53.771Z,62.29
2018-05-14T22:47:50.644Z,62.48
2018-05-14T22:52:46.338Z,63.02
2018-05-14T22:57:42.959Z,63.51
2018-05-14T23:02:38.294Z,64.09
2018-05-14T23:07:35.704Z,66.00
2018-05-14T23:12:32.333Z,66.93
2018-05-14T23:17:28.280Z,68.37
2018-05-14T23:22:24.171Z,70.29
2018-05-14T23:27:20.202Z,70.20
2018-05-14T23:32:16.057Z,69.49
2018-05-14T23:37:11.716Z,70.36
2018-05-14T23:42:08.296Z,70.36
2018-05-14T23:47:04.779Z,70.61
2018-05-14T23:52:00.260Z,70.23
2018-05-14T23:56:57.214Z,71.47
